sensor_id;sensor_type;location;lat;lon;timestamp;temperature;humidity
22623;DHT22;11478;51.094;7.030;2023-02-10T00:01:26;0.60;99.90
22623;DHT22;11478;51.094;7.030;2023-02-10T00:03:53;0.60;99.90
22623;DHT22;11478;51.094;7.030;2023-02-10T00:06:20;0.60;99.90
22623;DHT22;11478;51.094;7.030;2023-02-10T00:08:49;0.60;99.90
22623;DHT22;11478;51.094;7.030;2023-02-10T00:11:15;0.60;99.90
22623;DHT22;11478;51.094;7.030;2023-02-10T00:13:42;0.60;99.90
22623;DHT22;11478;51.094;7.030;2023-02-10T00:16:14;0.60;99.90
22623;DHT22;11478;51.094;7.030;2023-02-10T00:18:40;0.60;99.90
22623;DHT22;11478;51.094;7.030;2023-02-10T00:21:12;0.60;99.90
22623;DHT22;11478;51.094;7.030;2023-02-10T00:23:44;0.70;99.90
22623;DHT22;11478;51.094;7.030;2023-02-10T00:26:12;0.60;99.90
22623;DHT22;11478;51.094;7.030;2023-02-10T00:28:38;0.60;99.90
22623;DHT22;11478;51.094;7.030;2023-02-10T00:31:06;0.60;99.90
22623;DHT22;11478;51.094;7.030;2023-02-10T00:33:33;0.60;99.90
22623;DHT22;11478;51.094;7.030;2023-02-10T00:36:03;0.70;99.90
22623;DHT22;11478;51.094;7.030;2023-02-10T00:38:39;0.70;99.90
22623;DHT22;11478;51.094;7.030;2023-02-10T00:41:07;0.70;99.90
22623;DHT22;11478;51.094;7.030;2023-02-10T00:44:10;0.70;99.90
22623;DHT22;11478;51.094;7.030;2023-02-10T00:46:36;0.70;99.90
22623;DHT22;11478;51.094;7.030;2023-02-10T00:49:05;0.70;99.90
22623;DHT22;11478;51.094;7.030;2023-02-10T00:51:31;0.70;99.90
22623;DHT22;11478;51.094;7.030;2023-02-10T00:54:04;0.70;99.90
22623;DHT22;11478;51.094;7.030;2023-02-10T00:56:29;0.70;99.90
22623;DHT22;11478;51.094;7.030;2023-02-10T00:58:59;0.70;99.90
22623;DHT22;11478;51.094;7.030;2023-02-10T01:01:25;0.70;99.90
22623;DHT22;11478;51.094;7.030;2023-02-10T01:03:59;0.70;99.90
22623;DHT22;11478;51.094;7.030;2023-02-10T01:06:25;0.70;99.90
22623;DHT22;11478;51.094;7.030;2023-02-10T01:08:58;0.70;99.90
22623;DHT22;11478;51.094;7.030;2023-02-10T01:11:24;0.70;99.90
22623;DHT22;11478;51.094;7.030;2023-02-10T01:13:51;0.70;99.90
22623;DHT22;11478;51.094;7.030;2023-02-10T01:16:17;0.70;99.90
22623;DHT22;11478;51.094;7.030;2023-02-10T01:18:54;0.70;99.90
22623;DHT22;11478;51.094;7.030;2023-02-10T01:21:20;0.70;99.90
22623;DHT22;11478;51.094;7.030;2023-02-10T01:23:50;0.70;99.90
22623;DHT22;11478;51.094;7.030;2023-02-10T01:26:16;0.70;99.90
22623;DHT22;11478;51.094;7.030;2023-02-10T01:28:45;0.80;99.90
22623;DHT22;11478;51.094;7.030;2023-02-10T01:31:13;0.70;99.90
22623;DHT22;11478;51.094;7.030;2023-02-10T01:33:41;0.80;99.90
22623;DHT22;11478;51.094;7.030;2023-02-10T01:36:09;0.80;99.90
22623;DHT22;11478;51.094;7.030;2023-02-10T01:38:37;0.70;99.90
22623;DHT22;11478;51.094;7.030;2023-02-10T01:41:04;0.80;99.90
22623;DHT22;11478;51.094;7.030;2023-02-10T01:43:32;0.70;99.90
22623;DHT22;11478;51.094;7.030;2023-02-10T01:45:58;0.80;99.90
22623;DHT22;11478;51.094;7.030;2023-02-10T01:48:25;0.80;99.90
22623;DHT22;11478;51.094;7.030;2023-02-10T01:50:58;0.80;99.90
22623;DHT22;11478;51.094;7.030;2023-02-10T01:53:26;0.80;99.90
22623;DHT22;11478;51.094;7.030;2023-02-10T01:55:55;0.80;99.90
22623;DHT22;11478;51.094;7.030;2023-02-10T01:58:26;0.80;99.90
22623;DHT22;11478;51.094;7.030;2023-02-10T02:00:54;0.80;99.90
22623;DHT22;11478;51.094;7.030;2023-02-10T02:03:20;0.80;99.90
22623;DHT22;11478;51.094;7.030;2023-02-10T02:05:55;0.70;99.90
22623;DHT22;11478;51.094;7.030;2023-02-10T02:08:26;0.80;99.90
22623;DHT22;11478;51.094;7.030;2023-02-10T02:34:39;0.80;99.90
22623;DHT22;11478;51.094;7.030;2023-02-10T02:37:29;0.80;99.90
22623;DHT22;11478;51.094;7.030;2023-02-10T02:39:59;0.80;99.90
22623;DHT22;11478;51.094;7.030;2023-02-10T02:42:27;0.80;99.90
22623;DHT22;11478;51.094;7.030;2023-02-10T02:53:51;0.70;99.90
22623;DHT22;11478;51.094;7.030;2023-02-10T03:02:08;0.70;99.90
22623;DHT22;11478;51.094;7.030;2023-02-10T03:04:37;0.60;99.90
22623;DHT22;11478;51.094;7.030;2023-02-10T03:07:04;0.60;99.90
22623;DHT22;11478;51.094;7.030;2023-02-10T03:09:44;0.60;99.90
22623;DHT22;11478;51.094;7.030;2023-02-10T03:12:10;0.60;99.90
22623;DHT22;11478;51.094;7.030;2023-02-10T03:14:39;0.60;99.90
22623;DHT22;11478;51.094;7.030;2023-02-10T03:17:05;0.60;99.90
22623;DHT22;11478;51.094;7.030;2023-02-10T03:19:31;0.50;99.90
22623;DHT22;11478;51.094;7.030;2023-02-10T03:21:57;0.50;99.90
22623;DHT22;11478;51.094;7.030;2023-02-10T03:24:24;0.50;99.90
22623;DHT22;11478;51.094;7.030;2023-02-10T03:26:49;0.50;99.90
22623;DHT22;11478;51.094;7.030;2023-02-10T03:29:31;0.40;99.90
22623;DHT22;11478;51.094;7.030;2023-02-10T03:31:57;0.50;99.90
22623;DHT22;11478;51.094;7.030;2023-02-10T03:34:33;0.50;99.90
22623;DHT22;11478;51.094;7.030;2023-02-10T03:36:58;0.40;99.90
22623;DHT22;11478;51.094;7.030;2023-02-10T03:39:24;0.40;99.90
22623;DHT22;11478;51.094;7.030;2023-02-10T03:41:50;0.40;99.90
22623;DHT22;11478;51.094;7.030;2023-02-10T03:44:34;0.30;99.90
22623;DHT22;11478;51.094;7.030;2023-02-10T03:47:00;0.30;99.90
22623;DHT22;11478;51.094;7.030;2023-02-10T03:49:25;0.30;99.90
22623;DHT22;11478;51.094;7.030;2023-02-10T03:51:51;0.20;99.90
22623;DHT22;11478;51.094;7.030;2023-02-10T03:54:19;0.20;99.90
22623;DHT22;11478;51.094;7.030;2023-02-10T03:56:45;0.20;99.90
22623;DHT22;11478;51.094;7.030;2023-02-10T03:59:21;0.20;99.90
22623;DHT22;11478;51.094;7.030;2023-02-10T04:01:47;0.10;99.90
22623;DHT22;11478;51.094;7.030;2023-02-10T04:04:20;0.10;99.90
22623;DHT22;11478;51.094;7.030;2023-02-10T04:06:46;0.10;99.90
22623;DHT22;11478;51.094;7.030;2023-02-10T04:09:18;0.10;99.90
22623;DHT22;11478;51.094;7.030;2023-02-10T04:11:43;0.10;99.90
22623;DHT22;11478;51.094;7.030;2023-02-10T04:14:16;0.00;99.90
22623;DHT22;11478;51.094;7.030;2023-02-10T04:16:42;0.00;99.90
22623;DHT22;11478;51.094;7.030;2023-02-10T04:19:08;-0.10;99.90
22623;DHT22;11478;51.094;7.030;2023-02-10T04:21:34;-0.10;99.90
22623;DHT22;11478;51.094;7.030;2023-02-10T04:24:00;-0.10;99.90
22623;DHT22;11478;51.094;7.030;2023-02-10T04:26:25;-0.20;99.90
22623;DHT22;11478;51.094;7.030;2023-02-10T04:28:56;-0.30;99.90
22623;DHT22;11478;51.094;7.030;2023-02-10T04:31:21;-0.30;99.90
22623;DHT22;11478;51.094;7.030;2023-02-10T04:33:54;-0.40;99.90
22623;DHT22;11478;51.094;7.030;2023-02-10T04:36:20;-0.40;99.90
22623;DHT22;11478;51.094;7.030;2023-02-10T04:38:46;-0.50;99.90
22623;DHT22;11478;51.094;7.030;2023-02-10T04:41:12;-0.50;99.90
22623;DHT22;11478;51.094;7.030;2023-02-10T04:43:38;-0.60;99.90
22623;DHT22;11478;51.094;7.030;2023-02-10T04:46:03;-0.60;99.90
22623;DHT22;11478;51.094;7.030;2023-02-10T04:48:30;-0.70;99.90
22623;DHT22;11478;51.094;7.030;2023-02-10T04:50:56;-0.70;99.90
22623;DHT22;11478;51.094;7.030;2023-02-10T04:53:22;-0.70;99.90
22623;DHT22;11478;51.094;7.030;2023-02-10T04:55:47;-0.70;99.90
22623;DHT22;11478;51.094;7.030;2023-02-10T04:58:13;-0.80;99.90
22623;DHT22;11478;51.094;7.030;2023-02-10T05:00:39;-0.80;99.90
22623;DHT22;11478;51.094;7.030;2023-02-10T05:03:09;-0.90;99.90
22623;DHT22;11478;51.094;7.030;2023-02-10T05:05:35;-0.90;99.90
22623;DHT22;11478;51.094;7.030;2023-02-10T05:08:04;-0.90;99.90
22623;DHT22;11478;51.094;7.030;2023-02-10T05:10:29;-0.90;99.90
22623;DHT22;11478;51.094;7.030;2023-02-10T05:12:59;-1.00;99.90
22623;DHT22;11478;51.094;7.030;2023-02-10T05:15:25;-1.10;99.90
22623;DHT22;11478;51.094;7.030;2023-02-10T05:17:54;-1.10;99.90
22623;DHT22;11478;51.094;7.030;2023-02-10T05:20:20;-1.10;99.90
22623;DHT22;11478;51.094;7.030;2023-02-10T05:22:45;-1.10;99.90
22623;DHT22;11478;51.094;7.030;2023-02-10T05:25:11;-1.20;99.90
22623;DHT22;11478;51.094;7.030;2023-02-10T05:27:39;-1.20;99.90
22623;DHT22;11478;51.094;7.030;2023-02-10T05:30:06;-1.20;99.90
22623;DHT22;11478;51.094;7.030;2023-02-10T05:32:32;-1.20;99.90
22623;DHT22;11478;51.094;7.030;2023-02-10T05:34:58;-1.30;99.90
22623;DHT22;11478;51.094;7.030;2023-02-10T05:37:31;-1.30;99.90
22623;DHT22;11478;51.094;7.030;2023-02-10T05:40:14;-1.30;99.90
22623;DHT22;11478;51.094;7.030;2023-02-10T05:42:40;-1.30;99.90
22623;DHT22;11478;51.094;7.030;2023-02-10T05:45:06;-1.40;99.90
22623;DHT22;11478;51.094;7.030;2023-02-10T05:47:32;-1.40;99.90
22623;DHT22;11478;51.094;7.030;2023-02-10T05:49:58;-1.40;99.90
22623;DHT22;11478;51.094;7.030;2023-02-10T05:52:24;-1.40;99.90
22623;DHT22;11478;51.094;7.030;2023-02-10T05:54:51;-1.40;99.90
22623;DHT22;11478;51.094;7.030;2023-02-10T05:57:17;-1.50;99.90
22623;DHT22;11478;51.094;7.030;2023-02-10T05:59:44;-1.50;99.90
22623;DHT22;11478;51.094;7.030;2023-02-10T06:02:11;-1.50;99.90
22623;DHT22;11478;51.094;7.030;2023-02-10T06:04:36;-1.50;99.90
22623;DHT22;11478;51.094;7.030;2023-02-10T06:07:02;-1.50;99.90
22623;DHT22;11478;51.094;7.030;2023-02-10T06:09:30;-1.50;99.90
22623;DHT22;11478;51.094;7.030;2023-02-10T06:11:55;-1.60;99.90
22623;DHT22;11478;51.094;7.030;2023-02-10T06:14:22;-1.60;99.90
22623;DHT22;11478;51.094;7.030;2023-02-10T06:16:48;-1.60;99.90
22623;DHT22;11478;51.094;7.030;2023-02-10T06:19:14;-1.70;99.90
22623;DHT22;11478;51.094;7.030;2023-02-10T06:21:40;-1.70;99.90
22623;DHT22;11478;51.094;7.030;2023-02-10T06:24:06;-1.80;99.90
22623;DHT22;11478;51.094;7.030;2023-02-10T06:26:32;-1.80;99.90
22623;DHT22;11478;51.094;7.030;2023-02-10T06:28:57;-1.70;99.90
22623;DHT22;11478;51.094;7.030;2023-02-10T06:31:23;-1.70;99.90
22623;DHT22;11478;51.094;7.030;2023-02-10T06:33:53;-1.70;99.90
22623;DHT22;11478;51.094;7.030;2023-02-10T06:36:19;-1.70;99.90
22623;DHT22;11478;51.094;7.030;2023-02-10T06:38:48;-1.80;99.90
22623;DHT22;11478;51.094;7.030;2023-02-10T06:41:16;-1.70;99.90
22623;DHT22;11478;51.094;7.030;2023-02-10T06:43:41;-1.70;99.90
22623;DHT22;11478;51.094;7.030;2023-02-10T06:46:08;-1.70;99.90
22623;DHT22;11478;51.094;7.030;2023-02-10T06:48:34;-1.70;99.90
22623;DHT22;11478;51.094;7.030;2023-02-10T06:51:00;-1.80;99.90
22623;DHT22;11478;51.094;7.030;2023-02-10T06:53:59;-1.80;99.90
22623;DHT22;11478;51.094;7.030;2023-02-10T06:56:25;-1.70;99.90
22623;DHT22;11478;51.094;7.030;2023-02-10T06:58:51;-1.80;99.90
22623;DHT22;11478;51.094;7.030;2023-02-10T07:01:18;-1.80;99.90
22623;DHT22;11478;51.094;7.030;2023-02-10T07:03:44;-1.80;99.90
22623;DHT22;11478;51.094;7.030;2023-02-10T07:06:10;-1.80;99.90
22623;DHT22;11478;51.094;7.030;2023-02-10T07:08:38;-1.70;99.90
22623;DHT22;11478;51.094;7.030;2023-02-10T07:11:04;-1.60;99.90
22623;DHT22;11478;51.094;7.030;2023-02-10T07:13:33;-1.50;99.90
22623;DHT22;11478;51.094;7.030;2023-02-10T07:15:59;-1.50;99.90
22623;DHT22;11478;51.094;7.030;2023-02-10T07:18:24;-1.40;99.90
22623;DHT22;11478;51.094;7.030;2023-02-10T07:20:50;-1.40;99.90
22623;DHT22;11478;51.094;7.030;2023-02-10T07:23:19;-1.40;99.90
22623;DHT22;11478;51.094;7.030;2023-02-10T07:25:45;-1.30;99.90
22623;DHT22;11478;51.094;7.030;2023-02-10T07:28:11;-1.20;99.90
22623;DHT22;11478;51.094;7.030;2023-02-10T07:30:37;-1.10;99.90
22623;DHT22;11478;51.094;7.030;2023-02-10T07:33:05;-1.10;99.90
22623;DHT22;11478;51.094;7.030;2023-02-10T07:35:33;-1.10;99.90
22623;DHT22;11478;51.094;7.030;2023-02-10T07:38:00;-1.00;99.90
22623;DHT22;11478;51.094;7.030;2023-02-10T07:40:26;-0.90;99.90
22623;DHT22;11478;51.094;7.030;2023-02-10T07:42:55;-0.90;99.90
22623;DHT22;11478;51.094;7.030;2023-02-10T07:45:22;-0.80;99.90
22623;DHT22;11478;51.094;7.030;2023-02-10T07:47:47;-0.80;99.90
22623;DHT22;11478;51.094;7.030;2023-02-10T07:50:13;-0.80;99.90
22623;DHT22;11478;51.094;7.030;2023-02-10T07:52:39;-0.70;99.90
22623;DHT22;11478;51.094;7.030;2023-02-10T07:55:07;-0.70;99.90
22623;DHT22;11478;51.094;7.030;2023-02-10T07:57:33;-0.60;99.90
22623;DHT22;11478;51.094;7.030;2023-02-10T07:59:58;-0.60;99.90
22623;DHT22;11478;51.094;7.030;2023-02-10T08:02:24;-0.60;99.90
22623;DHT22;11478;51.094;7.030;2023-02-10T08:04:51;-0.50;99.90
22623;DHT22;11478;51.094;7.030;2023-02-10T08:07:19;-0.50;99.90
22623;DHT22;11478;51.094;7.030;2023-02-10T08:09:45;-0.50;99.90
22623;DHT22;11478;51.094;7.030;2023-02-10T08:12:11;-0.40;99.90
22623;DHT22;11478;51.094;7.030;2023-02-10T08:21:31;-0.30;99.90
22623;DHT22;11478;51.094;7.030;2023-02-10T08:23:56;-0.30;99.90
22623;DHT22;11478;51.094;7.030;2023-02-10T08:29:29;-0.20;99.90
22623;DHT22;11478;51.094;7.030;2023-02-10T08:32:03;-0.10;99.90
22623;DHT22;11478;51.094;7.030;2023-02-10T08:34:29;-0.10;99.90
22623;DHT22;11478;51.094;7.030;2023-02-10T08:37:25;0.00;99.90
22623;DHT22;11478;51.094;7.030;2023-02-10T08:40:00;0.10;99.90
22623;DHT22;11478;51.094;7.030;2023-02-10T08:42:34;0.10;99.90
22623;DHT22;11478;51.094;7.030;2023-02-10T08:44:59;0.20;99.90
22623;DHT22;11478;51.094;7.030;2023-02-10T08:47:32;0.20;99.90
22623;DHT22;11478;51.094;7.030;2023-02-10T08:49:57;0.20;99.90
22623;DHT22;11478;51.094;7.030;2023-02-10T08:52:26;0.30;99.90
22623;DHT22;11478;51.094;7.030;2023-02-10T08:54:55;0.30;99.90
22623;DHT22;11478;51.094;7.030;2023-02-10T08:57:25;0.40;99.90
22623;DHT22;11478;51.094;7.030;2023-02-10T08:59:52;0.50;99.90
22623;DHT22;11478;51.094;7.030;2023-02-10T09:02:18;0.50;99.90
22623;DHT22;11478;51.094;7.030;2023-02-10T09:04:44;0.50;99.90
22623;DHT22;11478;51.094;7.030;2023-02-10T09:07:15;0.60;99.90
22623;DHT22;11478;51.094;7.030;2023-02-10T09:09:42;0.60;99.90
22623;DHT22;11478;51.094;7.030;2023-02-10T09:12:10;0.70;99.90
22623;DHT22;11478;51.094;7.030;2023-02-10T09:14:38;0.70;99.90
22623;DHT22;11478;51.094;7.030;2023-02-10T09:17:06;0.70;99.90
22623;DHT22;11478;51.094;7.030;2023-02-10T09:19:37;0.80;99.90
22623;DHT22;11478;51.094;7.030;2023-02-10T09:22:04;0.80;99.90
22623;DHT22;11478;51.094;7.030;2023-02-10T09:24:31;0.90;99.90
22623;DHT22;11478;51.094;7.030;2023-02-10T09:26:59;1.00;99.90
22623;DHT22;11478;51.094;7.030;2023-02-10T09:29:25;1.00;99.90
22623;DHT22;11478;51.094;7.030;2023-02-10T09:31:53;1.10;99.90
22623;DHT22;11478;51.094;7.030;2023-02-10T09:34:19;1.20;99.90
22623;DHT22;11478;51.094;7.030;2023-02-10T09:36:45;1.30;99.90
22623;DHT22;11478;51.094;7.030;2023-02-10T09:39:11;1.30;99.90
22623;DHT22;11478;51.094;7.030;2023-02-10T09:41:39;1.30;99.90
22623;DHT22;11478;51.094;7.030;2023-02-10T09:44:23;1.40;99.90
22623;DHT22;11478;51.094;7.030;2023-02-10T09:59:01;2.10;99.90
22623;DHT22;11478;51.094;7.030;2023-02-10T10:03:45;2.40;99.90
22623;DHT22;11478;51.094;7.030;2023-02-10T10:06:30;2.50;99.90
22623;DHT22;11478;51.094;7.030;2023-02-10T10:09:08;2.60;99.90
22623;DHT22;11478;51.094;7.030;2023-02-10T10:11:46;2.70;99.90
22623;DHT22;11478;51.094;7.030;2023-02-10T10:14:48;2.90;99.90
22623;DHT22;11478;51.094;7.030;2023-02-10T10:17:50;3.10;99.90
22623;DHT22;11478;51.094;7.030;2023-02-10T10:20:39;3.20;99.90
22623;DHT22;11478;51.094;7.030;2023-02-10T10:34:41;3.70;99.90
22623;DHT22;11478;51.094;7.030;2023-02-10T10:37:16;3.80;99.90
22623;DHT22;11478;51.094;7.030;2023-02-10T10:39:49;3.90;99.90
22623;DHT22;11478;51.094;7.030;2023-02-10T10:42:43;4.00;99.90
22623;DHT22;11478;51.094;7.030;2023-02-10T10:46:19;3.90;99.90
22623;DHT22;11478;51.094;7.030;2023-02-10T10:48:37;3.90;99.90
22623;DHT22;11478;51.094;7.030;2023-02-10T10:51:10;3.90;99.90
22623;DHT22;11478;51.094;7.030;2023-02-10T10:54:11;4.00;99.90
22623;DHT22;11478;51.094;7.030;2023-02-10T10:57:00;4.10;99.90
22623;DHT22;11478;51.094;7.030;2023-02-10T10:59:37;4.20;99.90
22623;DHT22;11478;51.094;7.030;2023-02-10T11:02:25;4.40;99.90
22623;DHT22;11478;51.094;7.030;2023-02-10T11:05:12;4.40;99.90
22623;DHT22;11478;51.094;7.030;2023-02-10T11:07:40;4.40;99.90
22623;DHT22;11478;51.094;7.030;2023-02-10T11:10:30;4.40;99.90
22623;DHT22;11478;51.094;7.030;2023-02-10T11:12:58;4.60;99.90
22623;DHT22;11478;51.094;7.030;2023-02-10T11:15:30;4.80;99.90
22623;DHT22;11478;51.094;7.030;2023-02-10T11:17:57;5.10;99.90
22623;DHT22;11478;51.094;7.030;2023-02-10T11:20:25;5.20;99.90
22623;DHT22;11478;51.094;7.030;2023-02-10T11:22:58;5.20;99.90
22623;DHT22;11478;51.094;7.030;2023-02-10T11:25:31;5.30;99.90
22623;DHT22;11478;51.094;7.030;2023-02-10T11:27:58;5.40;99.90
22623;DHT22;11478;51.094;7.030;2023-02-10T11:30:45;5.50;99.90
22623;DHT22;11478;51.094;7.030;2023-02-10T11:33:21;5.40;99.90
22623;DHT22;11478;51.094;7.030;2023-02-10T11:35:51;5.40;99.90
22623;DHT22;11478;51.094;7.030;2023-02-10T11:38:21;5.30;99.90
22623;DHT22;11478;51.094;7.030;2023-02-10T11:40:54;5.20;99.90
22623;DHT22;11478;51.094;7.030;2023-02-10T11:43:27;5.10;99.90
22623;DHT22;11478;51.094;7.030;2023-02-10T11:46:19;5.20;99.90
22623;DHT22;11478;51.094;7.030;2023-02-10T11:51:21;5.30;99.90
22623;DHT22;11478;51.094;7.030;2023-02-10T11:53:48;5.40;99.90
22623;DHT22;11478;51.094;7.030;2023-02-10T11:56:29;5.50;99.90
22623;DHT22;11478;51.094;7.030;2023-02-10T11:59:31;5.60;99.90
22623;DHT22;11478;51.094;7.030;2023-02-10T12:05:43;5.70;99.90
22623;DHT22;11478;51.094;7.030;2023-02-10T12:08:17;5.90;99.90
22623;DHT22;11478;51.094;7.030;2023-02-10T12:18:57;6.30;99.90
22623;DHT22;11478;51.094;7.030;2023-02-10T12:21:36;6.20;99.90
22623;DHT22;11478;51.094;7.030;2023-02-10T12:36:27;6.10;99.90
22623;DHT22;11478;51.094;7.030;2023-02-10T12:47:42;6.10;99.90
22623;DHT22;11478;51.094;7.030;2023-02-10T12:50:26;6.20;99.90
22623;DHT22;11478;51.094;7.030;2023-02-10T12:53:15;6.30;99.90
22623;DHT22;11478;51.094;7.030;2023-02-10T12:58:32;6.80;99.90
22623;DHT22;11478;51.094;7.030;2023-02-10T13:03:48;7.20;99.90
22623;DHT22;11478;51.094;7.030;2023-02-10T13:09:15;7.50;99.90
22623;DHT22;11478;51.094;7.030;2023-02-10T13:14:43;7.50;99.90
22623;DHT22;11478;51.094;7.030;2023-02-10T13:17:15;7.50;99.90
22623;DHT22;11478;51.094;7.030;2023-02-10T13:19:56;7.40;99.90
22623;DHT22;11478;51.094;7.030;2023-02-10T13:22:41;7.40;99.90
22623;DHT22;11478;51.094;7.030;2023-02-10T13:25:15;7.40;99.90
22623;DHT22;11478;51.094;7.030;2023-02-10T13:36:17;7.40;99.90
22623;DHT22;11478;51.094;7.030;2023-02-10T13:38:46;7.40;99.90
22623;DHT22;11478;51.094;7.030;2023-02-10T13:41:25;7.40;99.90
22623;DHT22;11478;51.094;7.030;2023-02-10T13:46:47;7.60;99.90
22623;DHT22;11478;51.094;7.030;2023-02-10T13:49:17;7.60;99.90
22623;DHT22;11478;51.094;7.030;2023-02-10T13:51:44;7.70;99.90
22623;DHT22;11478;51.094;7.030;2023-02-10T13:54:30;7.70;99.90
22623;DHT22;11478;51.094;7.030;2023-02-10T13:56:57;7.70;99.90
22623;DHT22;11478;51.094;7.030;2023-02-10T13:59:36;7.60;99.90
22623;DHT22;11478;51.094;7.030;2023-02-10T14:02:20;7.60;99.90
22623;DHT22;11478;51.094;7.030;2023-02-10T14:04:50;7.60;99.90
22623;DHT22;11478;51.094;7.030;2023-02-10T14:12:31;7.50;99.90
22623;DHT22;11478;51.094;7.030;2023-02-10T14:15:19;7.40;99.90
22623;DHT22;11478;51.094;7.030;2023-02-10T14:17:54;7.40;99.90
22623;DHT22;11478;51.094;7.030;2023-02-10T14:20:33;7.40;99.90
22623;DHT22;11478;51.094;7.030;2023-02-10T14:23:00;7.40;99.90
22623;DHT22;11478;51.094;7.030;2023-02-10T14:25:39;7.40;99.90
22623;DHT22;11478;51.094;7.030;2023-02-10T14:28:15;7.40;99.90
22623;DHT22;11478;51.094;7.030;2023-02-10T14:31:15;7.40;99.90
22623;DHT22;11478;51.094;7.030;2023-02-10T14:33:55;7.30;99.90
22623;DHT22;11478;51.094;7.030;2023-02-10T14:36:21;7.20;99.90
22623;DHT22;11478;51.094;7.030;2023-02-10T14:38:53;7.20;99.90
22623;DHT22;11478;51.094;7.030;2023-02-10T14:41:21;7.10;99.90
22623;DHT22;11478;51.094;7.030;2023-02-10T14:43:48;7.00;99.90
22623;DHT22;11478;51.094;7.030;2023-02-10T14:46:39;7.00;99.90
22623;DHT22;11478;51.094;7.030;2023-02-10T14:49:20;7.10;99.90
22623;DHT22;11478;51.094;7.030;2023-02-10T14:51:51;7.10;99.90
22623;DHT22;11478;51.094;7.030;2023-02-10T14:54:23;7.00;99.90
22623;DHT22;11478;51.094;7.030;2023-02-10T14:57:18;7.00;99.90
22623;DHT22;11478;51.094;7.030;2023-02-10T14:59:58;7.00;99.90
22623;DHT22;11478;51.094;7.030;2023-02-10T15:02:32;7.10;99.90
22623;DHT22;11478;51.094;7.030;2023-02-10T15:05:05;7.10;99.90
22623;DHT22;11478;51.094;7.030;2023-02-10T15:07:37;7.10;99.90
22623;DHT22;11478;51.094;7.030;2023-02-10T15:10:19;7.00;99.90
22623;DHT22;11478;51.094;7.030;2023-02-10T15:12:48;6.90;99.90
22623;DHT22;11478;51.094;7.030;2023-02-10T15:15:35;6.90;99.90
22623;DHT22;11478;51.094;7.030;2023-02-10T15:18:15;6.80;99.90
22623;DHT22;11478;51.094;7.030;2023-02-10T15:20:54;6.70;99.90
22623;DHT22;11478;51.094;7.030;2023-02-10T15:23:20;6.70;99.90
22623;DHT22;11478;51.094;7.030;2023-02-10T15:25:46;6.50;99.90
22623;DHT22;11478;51.094;7.030;2023-02-10T15:33:51;6.20;99.90
22623;DHT22;11478;51.094;7.030;2023-02-10T15:39:01;6.10;99.90
22623;DHT22;11478;51.094;7.030;2023-02-10T15:41:42;6.00;99.90
22623;DHT22;11478;51.094;7.030;2023-02-10T15:47:18;5.70;99.90
22623;DHT22;11478;51.094;7.030;2023-02-10T15:49:54;5.60;99.90
22623;DHT22;11478;51.094;7.030;2023-02-10T15:52:38;5.50;99.90
22623;DHT22;11478;51.094;7.030;2023-02-10T15:58:38;5.30;99.90
22623;DHT22;11478;51.094;7.030;2023-02-10T16:01:12;5.20;99.90
22623;DHT22;11478;51.094;7.030;2023-02-10T16:03:43;5.20;99.90
22623;DHT22;11478;51.094;7.030;2023-02-10T16:06:13;5.10;99.90
22623;DHT22;11478;51.094;7.030;2023-02-10T16:08:40;5.10;99.90
22623;DHT22;11478;51.094;7.030;2023-02-10T16:11:08;5.00;99.90
22623;DHT22;11478;51.094;7.030;2023-02-10T16:13:40;4.90;99.90
22623;DHT22;11478;51.094;7.030;2023-02-10T16:16:13;4.90;99.90
22623;DHT22;11478;51.094;7.030;2023-02-10T16:18:58;4.80;99.90
22623;DHT22;11478;51.094;7.030;2023-02-10T16:21:28;4.70;99.90
22623;DHT22;11478;51.094;7.030;2023-02-10T16:23:53;4.60;99.90
22623;DHT22;11478;51.094;7.030;2023-02-10T16:26:24;4.40;99.90
22623;DHT22;11478;51.094;7.030;2023-02-10T16:28:50;4.30;99.90
22623;DHT22;11478;51.094;7.030;2023-02-10T16:31:17;4.20;99.90
22623;DHT22;11478;51.094;7.030;2023-02-10T16:33:46;4.00;99.90
22623;DHT22;11478;51.094;7.030;2023-02-10T16:36:16;3.90;99.90
22623;DHT22;11478;51.094;7.030;2023-02-10T16:38:43;3.70;99.90
22623;DHT22;11478;51.094;7.030;2023-02-10T16:41:17;3.60;99.90
22623;DHT22;11478;51.094;7.030;2023-02-10T16:43:44;3.40;99.90
22623;DHT22;11478;51.094;7.030;2023-02-10T16:46:14;3.30;99.90
22623;DHT22;11478;51.094;7.030;2023-02-10T16:48:42;3.20;99.90
22623;DHT22;11478;51.094;7.030;2023-02-10T16:51:31;3.10;99.90
22623;DHT22;11478;51.094;7.030;2023-02-10T16:53:57;2.90;99.90
22623;DHT22;11478;51.094;7.030;2023-02-10T16:56:25;2.80;99.90
22623;DHT22;11478;51.094;7.030;2023-02-10T16:58:51;2.80;99.90
22623;DHT22;11478;51.094;7.030;2023-02-10T17:01:17;2.70;99.90
22623;DHT22;11478;51.094;7.030;2023-02-10T17:03:43;2.60;99.90
22623;DHT22;11478;51.094;7.030;2023-02-10T17:06:31;2.60;99.90
22623;DHT22;11478;51.094;7.030;2023-02-10T17:08:59;2.50;99.90
22623;DHT22;11478;51.094;7.030;2023-02-10T17:11:26;2.40;99.90
22623;DHT22;11478;51.094;7.030;2023-02-10T17:13:52;2.40;99.90
22623;DHT22;11478;51.094;7.030;2023-02-10T17:16:46;2.30;99.90
22623;DHT22;11478;51.094;7.030;2023-02-10T17:19:13;2.20;99.90
22623;DHT22;11478;51.094;7.030;2023-02-10T17:21:48;2.20;99.90
22623;DHT22;11478;51.094;7.030;2023-02-10T17:24:13;2.10;99.90
22623;DHT22;11478;51.094;7.030;2023-02-10T17:26:40;2.10;99.90
22623;DHT22;11478;51.094;7.030;2023-02-10T17:29:11;2.10;99.90
22623;DHT22;11478;51.094;7.030;2023-02-10T17:31:40;2.20;99.90
22623;DHT22;11478;51.094;7.030;2023-02-10T17:34:05;2.10;99.90
22623;DHT22;11478;51.094;7.030;2023-02-10T17:36:37;2.00;99.90
22623;DHT22;11478;51.094;7.030;2023-02-10T17:39:04;2.00;99.90
22623;DHT22;11478;51.094;7.030;2023-02-10T17:41:57;1.90;99.90
22623;DHT22;11478;51.094;7.030;2023-02-10T17:44:26;1.90;99.90
22623;DHT22;11478;51.094;7.030;2023-02-10T17:46:55;1.90;99.90
22623;DHT22;11478;51.094;7.030;2023-02-10T17:49:29;1.80;99.90
22623;DHT22;11478;51.094;7.030;2023-02-10T17:51:56;1.80;99.90
22623;DHT22;11478;51.094;7.030;2023-02-10T17:54:22;1.80;99.90
22623;DHT22;11478;51.094;7.030;2023-02-10T17:56:48;1.70;99.90
22623;DHT22;11478;51.094;7.030;2023-02-10T17:59:16;1.60;99.90
22623;DHT22;11478;51.094;7.030;2023-02-10T18:01:43;1.60;99.90
22623;DHT22;11478;51.094;7.030;2023-02-10T18:04:13;1.50;99.90
22623;DHT22;11478;51.094;7.030;2023-02-10T18:06:41;1.50;99.90
22623;DHT22;11478;51.094;7.030;2023-02-10T18:09:08;1.50;99.90
22623;DHT22;11478;51.094;7.030;2023-02-10T18:11:34;1.40;99.90
22623;DHT22;11478;51.094;7.030;2023-02-10T18:14:00;1.40;99.90
22623;DHT22;11478;51.094;7.030;2023-02-10T18:16:26;1.40;99.90
22623;DHT22;11478;51.094;7.030;2023-02-10T18:18:52;1.40;99.90
22623;DHT22;11478;51.094;7.030;2023-02-10T18:21:19;1.40;99.90
22623;DHT22;11478;51.094;7.030;2023-02-10T18:23:49;1.40;99.90
22623;DHT22;11478;51.094;7.030;2023-02-10T18:26:16;1.50;99.90
22623;DHT22;11478;51.094;7.030;2023-02-10T18:28:49;1.50;99.90
22623;DHT22;11478;51.094;7.030;2023-02-10T18:31:15;1.50;99.90
22623;DHT22;11478;51.094;7.030;2023-02-10T18:33:43;1.60;99.90
22623;DHT22;11478;51.094;7.030;2023-02-10T18:36:12;1.60;99.90
22623;DHT22;11478;51.094;7.030;2023-02-10T18:38:42;1.60;99.90